Time;durP1;ratioP1;P1;durP2;ratioP2;P2;SDS_P1;SDS_P2;PMS_P1;PMS_P2;Temp;Humidity;BMP_temperature;BMP_pressure;BME280_temperature;BME280_humidity;BME280_pressure;Samples;Min_cycle;Max_cycle;Signal;HPM_P1;HPM_P2
2020/12/22 00:03:52;;;;;;;0.80;0.30;;;13.60;99.90;;;;;;5949046;24;20186;-77
2020/12/22 00:16:56;;;;;;;1.23;0.30;;;13.80;99.90;;;;;;5994887;23;21116;-77
2020/12/22 00:23:58;;;;;;;0.80;0.30;;;14.00;99.90;;;;;;5877238;23;20618;-77
2020/12/22 00:26:58;;;;;;;0.90;0.30;;;14.00;99.90;;;;;;6081987;23;20583;-77
2020/12/22 00:29:56;;;;;;;;;;;;;;;;;;;;;
2020/12/22 00:40:44;;;;;;;;;;;;;;;;;;;;;
2020/12/22 00:43:54;;;;;;;;;;;;;;;;;;;;;
2020/12/22 00:47:48;;;;;;;1.00;0.50;;;14.30;99.90;;;;;;6078734;23;20167;-77
2020/12/22 00:55:26;;;;;;;0.80;0.30;;;14.50;99.90;;;;;;5933982;23;21277;-77
2020/12/22 00:58:59;;;;;;;0.87;0.30;;;14.50;99.90;;;;;;5968623;23;20606;-77
2020/12/22 01:02:20;;;;;;;0.80;0.40;;;14.60;99.90;;;;;;5943931;24;20587;-77
2020/12/22 01:05:16;;;;;;;0.90;0.32;;;14.60;99.90;;;;;;6028398;23;20241;-77
2020/12/22 01:08:34;;;;;;;0.90;0.30;;;14.70;99.90;;;;;;6101244;23;20178;-77
2020/12/22 01:15:29;;;;;;;1.30;0.40;;;14.70;99.90;;;;;;6125558;23;20602;-77
2020/12/22 01:17:59;;;;;;;0.80;0.30;;;14.80;99.90;;;;;;6076681;23;20582;-77
2020/12/22 01:20:41;;;;;;;0.80;0.30;;;14.90;99.90;;;;;;6077958;23;21388;-77
2020/12/22 01:23:28;;;;;;;1.13;0.40;;;14.90;99.90;;;;;;6077716;23;20594;-77
2020/12/22 01:26:17;;;;;;;1.00;0.40;;;14.90;99.90;;;;;;6077343;23;20578;-77
2020/12/22 01:29:01;;;;;;;1.10;0.40;;;15.00;99.90;;;;;;6103449;23;20672;-77
2020/12/22 01:31:49;;;;;;;0.80;0.30;;;15.00;99.90;;;;;;6101868;23;20526;-77
2020/12/22 01:34:30;;;;;;;0.83;0.40;;;15.10;99.90;;;;;;6101313;23;20570;-77
2020/12/22 01:37:20;;;;;;;2.17;1.03;;;15.10;99.90;;;;;;6102739;23;20550;-77
2020/12/22 01:40:16;;;;;;;1.23;0.47;;;15.10;99.90;;;;;;6106268;23;20928;-77
2020/12/22 01:42:55;;;;;;;1.00;0.50;;;15.20;99.90;;;;;;6078607;23;20675;-77
2020/12/22 01:48:59;;;;;;;1.10;0.40;;;15.20;99.90;;;;;;6101412;23;20586;-77
2020/12/22 01:54:45;;;;;;;0.90;0.40;;;15.20;99.90;;;;;;6119498;23;20622;-77
2020/12/22 01:57:16;;;;;;;1.00;0.40;;;15.30;99.90;;;;;;6101004;23;20661;-77
2020/12/22 02:00:30;;;;;;;0.90;0.40;;;15.20;99.90;;;;;;6102157;23;20600;-77
2020/12/22 02:03:48;;;;;;;0.80;0.40;;;15.20;99.90;;;;;;6097856;23;20613;-77
2020/12/22 02:07:09;;;;;;;1.10;0.40;;;15.30;99.90;;;;;;6078609;23;20625;-77
2020/12/22 02:09:53;;;;;;;1.67;0.40;;;15.30;99.90;;;;;;6079676;23;20983;-77
2020/12/22 02:12:44;;;;;;;1.10;0.50;;;15.40;99.90;;;;;;6078892;23;20608;-77
2020/12/22 02:15:48;;;;;;;0.90;0.40;;;15.40;99.90;;;;;;6120819;23;20564;-77
2020/12/22 02:18:43;;;;;;;0.90;0.40;;;15.40;99.90;;;;;;6085149;23;20629;-77
2020/12/22 02:21:53;;;;;;;1.00;0.40;;;15.40;99.90;;;;;;6081611;23;21165;-75
2020/12/22 02:24:53;;;;;;;0.90;0.40;;;15.40;99.90;;;;;;6106569;23;20605;-75
2020/12/22 02:27:50;;;;;;;0.90;0.40;;;15.50;99.90;;;;;;6078398;23;20605;-75
2020/12/22 02:31:06;;;;;;;1.00;0.40;;;15.50;99.90;;;;;;6092843;23;20562;-75
2020/12/22 02:34:24;;;;;;;0.80;0.30;;;15.50;99.90;;;;;;6106080;23;20569;-78
2020/12/22 02:38:08;;;;;;;;;;;;;;;;;;;;;
2020/12/22 02:41:51;;;;;;;1.00;0.40;;;15.60;99.90;;;;;;6069809;23;20857;-78
2020/12/22 02:45:20;;;;;;;1.27;0.57;;;15.60;99.90;;;;;;6105492;23;20652;-76
2020/12/22 02:53:12;;;;;;;;;;;;;;;;;;;;;
2020/12/22 03:00:17;;;;;;;2.70;0.60;;;16.10;99.90;;;;;;6152825;23;20646;-76
2020/12/22 03:04:04;;;;;;;1.13;0.50;;;16.20;99.90;;;;;;6076004;23;20601;-76
2020/12/22 03:07:22;;;;;;;1.00;0.40;;;16.20;99.90;;;;;;6084846;23;20572;-76
2020/12/22 03:10:41;;;;;;;;;;;;;;;;;;;;;
2020/12/22 03:13:34;;;;;;;1.10;0.50;;;16.30;99.90;;;;;;6103676;23;21111;-76
2020/12/22 03:16:24;;;;;;;;;;;;;;;;;;;;;
2020/12/22 03:23:10;;;;;;;1.20;0.53;;;16.30;99.90;;;;;;6103735;23;20562;-76
2020/12/22 03:30:33;;;;;;;0.90;0.50;;;16.40;99.90;;;;;;6125999;23;20620;-76
2020/12/22 03:33:39;;;;;;;1.77;0.40;;;16.40;99.90;;;;;;6073268;23;20628;-76
2020/12/22 03:36:51;;;;;;;1.07;0.30;;;16.40;99.90;;;;;;6136686;23;21079;-77
2020/12/22 03:40:04;;;;;;;1.30;0.37;;;16.50;99.90;;;;;;6078164;23;20597;-76
2020/12/22 03:42:49;;;;;;;0.80;0.30;;;16.40;99.90;;;;;;6115083;23;20582;-76
2020/12/22 03:46:06;;;;;;;0.80;0.30;;;16.50;99.90;;;;;;6102366;23;20546;-76
2020/12/22 03:49:32;;;;;;;0.90;0.30;;;16.50;99.90;;;;;;6024720;23;20632;-76
2020/12/22 03:53:43;;;;;;;0.90;0.40;;;16.50;99.90;;;;;;6106453;23;20565;-76
2020/12/22 03:57:02;;;;;;;0.90;0.30;;;16.60;99.90;;;;;;6109446;23;20588;-76
2020/12/22 03:59:53;;;;;;;1.00;0.33;;;16.60;99.90;;;;;;6077240;23;20592;-76
2020/12/22 04:03:21;;;;;;;1.20;0.30;;;16.60;99.90;;;;;;6106730;23;20613;-76
2020/12/22 04:06:05;;;;;;;1.23;0.40;;;16.60;99.90;;;;;;6126660;23;20557;-76
2020/12/22 04:10:12;;;;;;;0.90;0.30;;;16.70;99.90;;;;;;6109176;23;21172;-76
2020/12/22 04:13:27;;;;;;;1.20;0.40;;;16.70;99.90;;;;;;6038284;23;21185;-76
2020/12/22 04:16:55;;;;;;;1.20;0.40;;;16.70;99.90;;;;;;6033598;23;20564;-76
2020/12/22 04:32:30;;;;;;;1.40;0.47;;;16.80;99.90;;;;;;6081528;23;20638;-81
2020/12/22 04:35:04;;;;;;;1.20;0.50;;;16.90;99.90;;;;;;6123822;23;20495;-81
2020/12/22 04:37:30;;;;;;;1.20;0.53;;;16.80;99.90;;;;;;6130978;23;20491;-81
2020/12/22 04:39:56;;;;;;;1.57;0.50;;;16.80;99.90;;;;;;6125842;23;20526;-80
2020/12/22 04:42:35;;;;;;;2.40;0.60;;;16.80;99.90;;;;;;6125654;23;20571;-81
2020/12/22 04:45:06;;;;;;;1.80;0.43;;;16.80;99.90;;;;;;6126548;23;20507;-82
2020/12/22 04:47:45;;;;;;;1.60;0.50;;;16.80;99.90;;;;;;6131974;23;21302;-82
2020/12/22 04:50:21;;;;;;;2.80;0.60;;;16.70;99.90;;;;;;6130365;23;20574;-83
2020/12/22 04:52:51;;;;;;;1.60;0.40;;;16.70;99.90;;;;;;6127627;23;20930;-81
2020/12/22 04:55:23;;;;;;;1.10;0.40;;;16.70;99.90;;;;;;6123577;23;20491;-81
2020/12/22 04:57:54;;;;;;;1.20;0.50;;;16.70;99.90;;;;;;6122792;23;20531;-82
2020/12/22 05:00:20;;;;;;;1.27;0.40;;;16.60;99.90;;;;;;6123031;23;20496;-81
2020/12/22 05:02:50;;;;;;;1.93;0.50;;;16.60;99.90;;;;;;6097049;23;20574;-82
2020/12/22 05:05:16;;;;;;;1.27;0.70;;;16.60;99.90;;;;;;6123571;23;21217;-82
2020/12/22 05:07:49;;;;;;;1.10;0.60;;;16.60;99.90;;;;;;6122682;23;20524;-82
2020/12/22 05:10:20;;;;;;;1.03;0.40;;;16.60;99.90;;;;;;6122985;23;20503;-82
2020/12/22 05:12:46;;;;;;;1.83;0.43;;;16.60;99.90;;;;;;6122973;23;21186;-82
2020/12/22 05:15:16;;;;;;;1.80;0.40;;;16.60;99.90;;;;;;6103915;23;20550;-81
2020/12/22 05:17:45;;;;;;;1.37;0.50;;;16.60;99.90;;;;;;6096187;23;20151;-82
2020/12/22 05:20:17;;;;;;;1.13;0.40;;;16.60;99.90;;;;;;6122890;23;20543;-81
2020/12/22 05:22:48;;;;;;;1.30;0.40;;;16.60;99.90;;;;;;6096917;23;20563;-81
2020/12/22 05:25:21;;;;;;;1.17;0.37;;;16.60;99.90;;;;;;6097199;23;20504;-81
2020/12/22 05:27:52;;;;;;;1.00;0.30;;;16.60;99.90;;;;;;6095791;23;20890;-81
2020/12/22 05:30:21;;;;;;;0.90;0.30;;;16.60;99.90;;;;;;6121108;23;20536;-81
2020/12/22 05:32:51;;;;;;;0.80;0.30;;;16.60;99.90;;;;;;6122677;23;21253;-81
2020/12/22 05:35:19;;;;;;;1.00;0.30;;;16.70;99.90;;;;;;6122748;23;20543;-81
2020/12/22 05:37:47;;;;;;;0.90;0.30;;;16.70;99.90;;;;;;6096650;23;20574;-81
2020/12/22 05:40:14;;;;;;;1.10;0.40;;;16.70;99.90;;;;;;6122048;23;21164;-81
2020/12/22 05:42:41;;;;;;;1.47;0.40;;;16.80;99.90;;;;;;6122617;23;20574;-81
2020/12/22 05:45:08;;;;;;;1.60;0.43;;;16.80;99.90;;;;;;6124379;23;20590;-81
2020/12/22 05:47:34;;;;;;;1.83;0.40;;;16.80;99.90;;;;;;6124173;23;20535;-80
2020/12/22 05:50:00;;;;;;;1.00;0.40;;;16.90;99.90;;;;;;6124809;23;20531;-81
2020/12/22 05:52:31;;;;;;;1.07;0.50;;;16.90;99.90;;;;;;6104825;23;21026;-81
2020/12/22 05:54:59;;;;;;;1.83;0.50;;;16.90;99.90;;;;;;6124520;23;20543;-82
2020/12/22 05:57:34;;;;;;;1.20;0.50;;;16.90;99.90;;;;;;6099513;23;20539;-81
2020/12/22 06:00:20;;;;;;;1.10;0.40;;;16.90;99.90;;;;;;6145132;23;21115;-82
2020/12/22 06:02:54;;;;;;;0.90;0.40;;;16.90;99.90;;;;;;6101341;23;20573;-82
2020/12/22 06:05:20;;;;;;;1.30;0.50;;;16.90;99.90;;;;;;6125446;23;20503;-81
2020/12/22 06:07:53;;;;;;;1.20;0.50;;;16.90;99.90;;;;;;6099160;23;20663;-81
2020/12/22 06:10:33;;;;;;;3.10;0.40;;;16.90;99.90;;;;;;6125419;23;20534;-81
2020/12/22 06:13:00;;;;;;;1.00;0.40;;;16.90;99.90;;;;;;6125860;23;20569;-81
2020/12/22 06:15:31;;;;;;;6.47;0.50;;;16.90;99.90;;;;;;6126145;23;20539;-81
2020/12/22 06:17:57;;;;;;;1.20;0.50;;;17.00;99.90;;;;;;6129765;23;20527;-81
2020/12/22 06:20:25;;;;;;;1.10;0.37;;;17.00;99.90;;;;;;6103179;23;20538;-81
2020/12/22 06:22:58;;;;;;;1.00;0.40;;;17.00;99.90;;;;;;6124042;23;20649;-81
2020/12/22 06:25:49;;;;;;;0.97;0.40;;;17.00;99.90;;;;;;6125551;23;20545;-81
2020/12/22 06:29:09;;;;;;;1.23;0.43;;;17.00;99.90;;;;;;6129017;23;20597;-81
2020/12/22 06:32:17;;;;;;;1.20;0.40;;;17.00;99.90;;;;;;6099244;23;20704;-81
2020/12/22 06:34:44;;;;;;;1.10;0.47;;;17.00;99.90;;;;;;6076063;23;20864;-81
2020/12/22 06:37:10;;;;;;;0.80;0.30;;;17.00;99.90;;;;;;6098990;23;20582;-81
2020/12/22 06:39:44;;;;;;;1.00;0.33;;;17.00;99.90;;;;;;6124143;23;20930;-82
2020/12/22 06:42:28;;;;;;;0.80;0.30;;;17.10;99.90;;;;;;6098359;23;20567;-80
2020/12/22 06:44:55;;;;;;;1.00;0.40;;;17.10;99.90;;;;;;6074817;23;20582;-81
2020/12/22 06:47:34;;;;;;;0.97;0.40;;;17.10;99.90;;;;;;6124484;23;20826;-81
2020/12/22 06:50:00;;;;;;;1.00;0.40;;;17.10;99.90;;;;;;6124299;23;20560;-81
2020/12/22 06:52:43;;;;;;;1.10;0.40;;;17.10;99.90;;;;;;6122062;23;20614;-81
2020/12/22 06:55:11;;;;;;;0.90;0.40;;;17.10;99.90;;;;;;6123690;23;20523;-81
2020/12/22 06:57:44;;;;;;;1.87;0.43;;;17.10;99.90;;;;;;6123994;23;20523;-82
2020/12/22 07:00:28;;;;;;;0.90;0.40;;;17.10;99.90;;;;;;6098108;23;20553;-81
2020/12/22 07:03:11;;;;;;;1.10;0.40;;;17.10;99.90;;;;;;6124739;23;20601;-81
2020/12/22 07:05:38;;;;;;;1.00;0.37;;;17.10;99.90;;;;;;6109408;23;20582;-82
2020/12/22 07:08:05;;;;;;;1.47;0.40;;;17.20;99.90;;;;;;6084725;23;20614;-82
2020/12/22 07:10:35;;;;;;;0.83;0.30;;;17.20;99.90;;;;;;6129960;23;20535;-81
2020/12/22 07:13:03;;;;;;;0.80;0.30;;;17.10;99.90;;;;;;6124287;23;20578;-81
2020/12/22 07:15:42;;;;;;;1.40;0.30;;;17.20;99.90;;;;;;6074369;23;20621;-82
2020/12/22 07:18:12;;;;;;;1.40;0.40;;;17.20;99.90;;;;;;6122286;23;20582;-81
2020/12/22 07:20:40;;;;;;;1.00;0.30;;;17.10;99.90;;;;;;6097494;23;20543;-83
2020/12/22 07:23:07;;;;;;;2.50;0.50;;;17.10;99.90;;;;;;6123293;23;20621;-80
2020/12/22 07:25:32;;;;;;;1.00;0.40;;;17.00;99.90;;;;;;6123670;23;20535;-80
2020/12/22 07:28:02;;;;;;;1.10;0.40;;;16.90;99.90;;;;;;6097223;23;20534;-81
2020/12/22 07:30:30;;;;;;;3.03;1.40;;;16.90;99.90;;;;;;6123926;23;20523;-82
2020/12/22 07:33:01;;;;;;;3.03;0.40;;;16.90;99.90;;;;;;6097666;23;20557;-82
2020/12/22 07:35:28;;;;;;;1.10;0.40;;;16.90;99.90;;;;;;6123771;23;20560;-82
2020/12/22 07:38:10;;;;;;;0.90;0.40;;;16.90;99.90;;;;;;6122823;23;20531;-81
2020/12/22 07:40:38;;;;;;;1.03;0.40;;;16.90;99.90;;;;;;6097747;23;20507;-81
2020/12/22 07:43:09;;;;;;;1.20;0.50;;;16.90;99.90;;;;;;6127772;23;20587;-81
2020/12/22 07:45:35;;;;;;;1.27;0.43;;;16.80;99.90;;;;;;6124665;23;20503;-82
2020/12/22 07:48:07;;;;;;;1.00;0.50;;;16.90;99.90;;;;;;6097644;23;20967;-81
2020/12/22 07:50:35;;;;;;;1.13;0.50;;;16.90;99.90;;;;;;6098295;23;21021;-82
2020/12/22 07:53:01;;;;;;;1.90;0.40;;;16.90;99.90;;;;;;6124014;23;20567;-82
2020/12/22 07:55:39;;;;;;;2.50;0.50;;;16.90;99.90;;;;;;6123824;23;20937;-82
2020/12/22 07:58:07;;;;;;;2.10;0.50;;;16.90;99.90;;;;;;6123472;23;20495;-82
2020/12/22 08:00:33;;;;;;;1.00;0.40;;;16.90;99.90;;;;;;6123360;23;21088;-82
2020/12/22 08:03:13;;;;;;;1.20;0.50;;;17.00;99.90;;;;;;6124241;23;20583;-82
2020/12/22 08:05:39;;;;;;;1.63;0.40;;;17.00;99.90;;;;;;6135249;23;20590;-80
2020/12/22 08:08:05;;;;;;;0.97;0.40;;;17.00;99.90;;;;;;6123195;23;20528;-81
2020/12/22 08:10:30;;;;;;;1.20;0.47;;;17.00;99.90;;;;;;6148034;23;20577;-81
2020/12/22 08:12:58;;;;;;;0.90;0.40;;;17.00;99.90;;;;;;6150953;23;20174;-81
2020/12/22 08:15:23;;;;;;;2.10;0.40;;;17.00;99.90;;;;;;6125460;23;20139;-80
2020/12/22 08:17:54;;;;;;;1.93;0.40;;;17.00;99.90;;;;;;6144331;23;21064;-82
2020/12/22 08:20:20;;;;;;;1.00;0.40;;;17.00;99.90;;;;;;6131239;23;20170;-82
2020/12/22 08:22:46;;;;;;;1.37;0.50;;;17.00;99.90;;;;;;6124472;23;20551;-83
2020/12/22 08:25:12;;;;;;;1.00;0.40;;;16.90;99.90;;;;;;6125336;23;20581;-82
2020/12/22 08:27:38;;;;;;;0.90;0.37;;;16.90;99.90;;;;;;6102040;23;20570;-83
2020/12/22 08:30:21;;;;;;;1.60;0.40;;;16.90;99.90;;;;;;6127508;23;20527;-82
2020/12/22 08:32:47;;;;;;;1.17;0.50;;;16.90;99.90;;;;;;6101239;23;20587;-83
2020/12/22 08:35:21;;;;;;;1.10;0.50;;;16.90;99.90;;;;;;6123727;23;20571;-83
2020/12/22 08:37:46;;;;;;;0.90;0.40;;;16.90;99.90;;;;;;6122866;23;20558;-84
2020/12/22 08:40:26;;;;;;;1.20;0.50;;;17.00;99.90;;;;;;6123115;23;20524;-82
2020/12/22 08:42:52;;;;;;;0.90;0.40;;;17.00;99.90;;;;;;6123090;23;20174;-83
2020/12/22 08:45:18;;;;;;;1.20;0.50;;;17.00;99.90;;;;;;6123648;23;20598;-84
2020/12/22 08:47:51;;;;;;;2.00;0.47;;;17.00;99.90;;;;;;6123880;23;20682;-84
2020/12/22 08:50:18;;;;;;;1.43;0.50;;;17.10;99.90;;;;;;6122969;23;20528;-83
2020/12/22 08:52:44;;;;;;;1.10;0.40;;;17.10;99.90;;;;;;6123072;23;21119;-84
2020/12/22 08:55:10;;;;;;;1.60;0.50;;;17.20;99.90;;;;;;6123646;23;20522;-83
2020/12/22 08:57:36;;;;;;;1.70;0.50;;;17.20;99.90;;;;;;6133033;23;20185;-83
2020/12/22 09:00:16;;;;;;;2.83;0.70;;;17.20;99.90;;;;;;6097344;23;20523;-86
2020/12/22 09:02:50;;;;;;;1.27;0.60;;;17.30;99.90;;;;;;6097102;23;20654;-83
2020/12/22 09:05:17;;;;;;;1.30;0.53;;;17.30;99.90;;;;;;6124019;23;20504;-84
2020/12/22 09:07:43;;;;;;;1.00;0.53;;;17.30;99.90;;;;;;6122240;23;20555;-84
2020/12/22 09:10:12;;;;;;;1.07;0.50;;;17.30;99.90;;;;;;6100371;23;20539;-85
2020/12/22 09:12:38;;;;;;;3.03;0.50;;;17.30;99.90;;;;;;6129075;23;20558;-84
2020/12/22 09:15:07;;;;;;;1.00;0.50;;;17.40;99.90;;;;;;6079065;23;20543;-85
2020/12/22 09:20:18;;;;;;;2.13;0.50;;;17.30;99.90;;;;;;6104565;23;20562;-84
2020/12/22 09:22:46;;;;;;;1.80;0.50;;;17.30;99.90;;;;;;6136047;23;20573;-85
2020/12/22 09:25:17;;;;;;;1.17;0.40;;;17.30;99.90;;;;;;6115938;23;20495;-84
2020/12/22 09:27:46;;;;;;;9.23;0.63;;;17.40;99.90;;;;;;6116989;23;20554;-86
2020/12/22 09:30:14;;;;;;;0.90;0.47;;;17.40;99.90;;;;;;6125788;23;20487;-86
2020/12/22 09:32:45;;;;;;;1.17;0.50;;;17.40;99.90;;;;;;6100367;23;20585;-86
2020/12/22 09:35:21;;;;;;;0.97;0.40;;;17.40;99.90;;;;;;6094025;23;20579;-86
2020/12/22 09:37:47;;;;;;;1.20;0.40;;;17.50;99.90;;;;;;6095749;23;20527;-85
2020/12/22 09:40:12;;;;;;;1.20;0.50;;;17.50;99.90;;;;;;6092139;23;20587;-85
2020/12/22 09:42:38;;;;;;;1.40;0.50;;;17.50;99.90;;;;;;6092175;23;20164;-86
2020/12/22 09:45:04;;;;;;;1.67;0.60;;;17.50;99.90;;;;;;6093026;23;20179;-85
2020/12/22 09:47:33;;;;;;;2.40;0.70;;;17.50;99.90;;;;;;6094055;23;20151;-86
2020/12/22 09:50:00;;;;;;;1.47;0.70;;;17.50;99.90;;;;;;6094687;23;20850;-85
2020/12/22 09:52:27;;;;;;;1.93;0.50;;;17.50;99.90;;;;;;6097617;23;20569;-86
2020/12/22 09:55:03;;;;;;;1.57;0.70;;;17.60;99.90;;;;;;6097046;23;20536;-86
2020/12/22 09:57:32;;;;;;;1.47;0.50;;;17.60;99.90;;;;;;6099910;23;20511;-85
2020/12/22 10:00:00;;;;;;;1.97;0.60;;;17.60;99.90;;;;;;6074796;23;20539;-86
2020/12/22 10:02:26;;;;;;;1.93;0.50;;;17.70;99.90;;;;;;6121994;23;20950;-86
2020/12/22 10:04:58;;;;;;;1.07;0.50;;;17.70;99.90;;;;;;6100231;23;20583;-85
2020/12/22 10:07:26;;;;;;;1.50;0.60;;;17.70;99.90;;;;;;6097759;23;20525;-85
2020/12/22 10:09:52;;;;;;;1.23;0.70;;;17.80;99.90;;;;;;6097964;23;20587;-86
2020/12/22 10:12:22;;;;;;;2.00;0.73;;;17.80;99.90;;;;;;6101968;23;21215;-85
2020/12/22 10:14:50;;;;;;;1.97;0.70;;;17.90;99.90;;;;;;6095941;23;20598;-84
2020/12/22 10:17:21;;;;;;;1.60;0.80;;;17.90;99.90;;;;;;6118030;23;20575;-84
2020/12/22 10:19:53;;;;;;;2.03;1.10;;;18.00;99.90;;;;;;6094201;23;20528;-84
2020/12/22 10:22:19;;;;;;;2.37;0.93;;;18.10;99.90;;;;;;6097656;23;20947;-84
2020/12/22 10:24:47;;;;;;;1.80;0.80;;;18.10;99.90;;;;;;6091939;23;20599;-84
2020/12/22 10:27:16;;;;;;;3.17;1.30;;;18.10;99.90;;;;;;6091479;23;20902;-84
2020/12/22 10:29:45;;;;;;;2.97;2.00;;;18.10;99.90;;;;;;6092626;23;21124;-84
2020/12/22 10:32:10;;;;;;;4.00;1.40;;;18.00;99.90;;;;;;6046291;23;20572;-83
2020/12/22 10:34:36;;;;;;;3.20;1.60;;;18.00;99.90;;;;;;6118358;23;20171;-84
2020/12/22 10:37:03;;;;;;;3.30;1.60;;;18.00;99.90;;;;;;6095746;23;20152;-85
2020/12/22 10:39:29;;;;;;;3.03;0.90;;;17.90;99.90;;;;;;6095112;23;20148;-86
2020/12/22 10:41:56;;;;;;;1.77;0.80;;;17.90;99.90;;;;;;6095137;23;20575;-86
2020/12/22 10:44:21;;;;;;;1.40;0.70;;;18.00;99.90;;;;;;6096115;23;20634;-86
2020/12/22 10:46:47;;;;;;;3.10;0.77;;;18.00;99.90;;;;;;6096259;23;20890;-87
2020/12/22 10:49:13;;;;;;;1.33;1.13;;;18.10;99.90;;;;;;6105729;23;20156;-86
2020/12/22 10:51:39;;;;;;;1.83;0.80;;;18.10;99.90;;;;;;6096074;23;20552;-86
2020/12/22 10:54:05;;;;;;;2.10;0.60;;;18.00;99.90;;;;;;6070385;23;20639;-87
2020/12/22 10:56:31;;;;;;;1.03;0.50;;;18.10;99.90;;;;;;6103070;23;20534;-83
2020/12/22 10:59:00;;;;;;;1.50;0.80;;;18.00;99.90;;;;;;6079796;23;20591;-85
2020/12/22 11:01:28;;;;;;;2.40;0.70;;;18.00;99.90;;;;;;6095598;23;20655;-83
2020/12/22 11:03:53;;;;;;;2.20;1.40;;;18.00;99.90;;;;;;6096322;23;20567;-83
2020/12/22 11:06:37;;;;;;;2.40;1.13;;;18.00;99.90;;;;;;6096133;23;20530;-85
2020/12/22 11:09:03;;;;;;;1.90;1.20;;;18.00;99.90;;;;;;6097659;23;20147;-83
2020/12/22 11:11:29;;;;;;;3.53;0.90;;;18.10;99.90;;;;;;6106644;23;20875;-84
2020/12/22 11:13:55;;;;;;;1.67;0.80;;;18.10;99.90;;;;;;6062402;23;20551;-86
2020/12/22 11:16:25;;;;;;;1.37;0.80;;;18.10;99.90;;;;;;6116308;23;20594;-85
2020/12/22 11:18:50;;;;;;;1.20;0.70;;;18.10;99.90;;;;;;6115987;23;20152;-85
2020/12/22 11:21:16;;;;;;;1.40;0.70;;;18.10;99.90;;;;;;6105999;23;20578;-86
2020/12/22 11:23:43;;;;;;;2.10;0.70;;;18.10;99.90;;;;;;6101373;23;20176;-86
2020/12/22 11:26:13;;;;;;;3.03;1.07;;;18.00;99.90;;;;;;6105607;23;20665;-85
2020/12/22 11:28:39;;;;;;;1.57;0.70;;;17.90;99.90;;;;;;6078617;23;20575;-85
2020/12/22 11:31:05;;;;;;;1.40;0.80;;;17.90;99.90;;;;;;6104655;23;20559;-85
2020/12/22 11:33:30;;;;;;;1.70;1.10;;;18.00;99.90;;;;;;6111964;23;20587;-86
2020/12/22 11:35:56;;;;;;;1.67;0.80;;;18.00;99.90;;;;;;6110950;23;20150;-86
2020/12/22 11:38:22;;;;;;;1.90;1.13;;;18.00;99.90;;;;;;6110477;23;20653;-86
2020/12/22 11:40:48;;;;;;;2.37;1.77;;;18.00;99.90;;;;;;6136463;23;20338;-88
2020/12/22 11:43:13;;;;;;;2.10;1.67;;;18.00;99.90;;;;;;6114252;23;20234;-86
2020/12/22 11:45:41;;;;;;;2.50;1.20;;;17.90;99.90;;;;;;6132904;23;20143;-86
2020/12/22 11:48:07;;;;;;;2.80;0.80;;;17.90;99.90;;;;;;6109392;23;20534;-86
2020/12/22 11:50:33;;;;;;;1.40;0.83;;;17.80;99.90;;;;;;6133067;23;20565;-85
2020/12/22 11:52:58;;;;;;;5.30;1.10;;;17.80;99.90;;;;;;6113270;23;20251;-85
2020/12/22 11:55:25;;;;;;;2.17;0.80;;;17.70;99.90;;;;;;6110141;23;20535;-86
2020/12/22 11:57:51;;;;;;;1.70;0.70;;;17.70;99.90;;;;;;6137067;23;20199;-85
2020/12/22 12:00:17;;;;;;;2.00;0.60;;;17.60;99.90;;;;;;6108469;23;20538;-85
2020/12/22 12:02:43;;;;;;;1.30;0.70;;;17.70;99.90;;;;;;6135745;23;20586;-85
2020/12/22 12:05:08;;;;;;;1.63;0.90;;;17.70;99.90;;;;;;6106568;23;20569;-85
2020/12/22 12:07:34;;;;;;;1.67;0.80;;;17.70;99.90;;;;;;6131336;23;20218;-85
2020/12/22 12:10:01;;;;;;;1.97;1.20;;;17.70;99.90;;;;;;6130743;23;20170;-84
2020/12/22 12:12:28;;;;;;;2.10;0.80;;;17.70;99.90;;;;;;6100778;23;20174;-84
2020/12/22 12:14:54;;;;;;;1.53;0.93;;;17.70;99.90;;;;;;6124451;23;20527;-85
2020/12/22 12:17:21;;;;;;;2.90;1.00;;;17.70;99.90;;;;;;6099083;23;20875;-84
2020/12/22 12:19:46;;;;;;;2.27;1.03;;;17.60;99.90;;;;;;6123730;23;20547;-84
2020/12/22 12:22:12;;;;;;;1.50;0.90;;;17.60;99.90;;;;;;6123737;23;20644;-84
2020/12/22 12:24:38;;;;;;;1.50;0.90;;;17.50;99.90;;;;;;6097739;23;20255;-85
2020/12/22 12:27:04;;;;;;;2.43;0.80;;;17.50;99.90;;;;;;6123740;23;20198;-85
2020/12/22 12:29:30;;;;;;;1.97;1.00;;;17.40;99.90;;;;;;6131660;23;20573;-88
2020/12/22 12:31:55;;;;;;;1.83;1.10;;;17.40;99.90;;;;;;6133054;23;20171;-88
2020/12/22 12:34:21;;;;;;;1.77;0.90;;;17.30;99.90;;;;;;6106363;23;20559;-87
2020/12/22 12:36:51;;;;;;;1.87;0.87;;;17.20;99.90;;;;;;6108868;23;20144;-88
2020/12/22 12:39:17;;;;;;;1.63;0.80;;;17.20;99.90;;;;;;6115344;23;20120;-88
2020/12/22 12:41:47;;;;;;;1.97;0.80;;;17.10;99.90;;;;;;6119851;23;20568;-88
2020/12/22 12:44:13;;;;;;;2.30;1.50;;;17.10;99.90;;;;;;6118837;23;20222;-89
2020/12/22 12:46:45;;;;;;;3.03;1.50;;;17.10;99.90;;;;;;6117755;23;20560;-89
2020/12/22 12:49:13;;;;;;;1.70;1.00;;;17.00;99.90;;;;;;6114050;23;20129;-88
2020/12/22 12:51:45;;;;;;;1.40;0.90;;;17.00;99.90;;;;;;6111524;23;20643;-89
2020/12/22 12:54:11;;;;;;;2.17;1.40;;;17.00;99.90;;;;;;6113233;23;20558;-88
2020/12/22 12:56:37;;;;;;;2.80;1.30;;;17.00;99.90;;;;;;6111503;23;20538;-89
2020/12/22 12:59:04;;;;;;;2.87;1.30;;;17.10;99.90;;;;;;6115600;23;20524;-88
2020/12/22 13:01:29;;;;;;;4.30;2.00;;;17.10;99.90;;;;;;6109033;23;20587;-87
2020/12/22 13:03:55;;;;;;;3.50;1.80;;;17.10;99.90;;;;;;6093977;23;21416;-84
2020/12/22 13:06:21;;;;;;;4.90;2.20;;;17.10;99.90;;;;;;6100454;23;20550;-87
2020/12/22 13:08:47;;;;;;;4.13;1.77;;;17.10;99.90;;;;;;6094597;23;20518;-88
2020/12/22 13:11:13;;;;;;;3.80;1.93;;;17.20;99.90;;;;;;6101437;23;20552;-86
2020/12/22 13:13:42;;;;;;;2.10;1.03;;;17.20;99.90;;;;;;6100714;23;20211;-89
2020/12/22 13:16:11;;;;;;;2.60;1.43;;;17.20;99.90;;;;;;6103911;23;20147;-88
2020/12/22 13:18:37;;;;;;;5.70;1.50;;;17.20;99.90;;;;;;6100578;23;20579;-88
2020/12/22 13:21:04;;;;;;;2.60;1.47;;;17.20;99.90;;;;;;6098098;23;20528;-90
2020/12/22 13:23:30;;;;;;;2.00;1.30;;;17.20;99.90;;;;;;6103360;23;20170;-87
2020/12/22 13:25:56;;;;;;;2.20;1.00;;;17.20;99.90;;;;;;6106061;23;20551;-88
2020/12/22 13:28:22;;;;;;;1.73;1.07;;;17.20;99.90;;;;;;6101880;23;20838;-87
2020/12/22 13:30:47;;;;;;;1.97;1.77;;;17.20;99.90;;;;;;6099056;23;20144;-87
2020/12/22 13:33:13;;;;;;;1.90;1.20;;;17.20;99.90;;;;;;6102756;23;20148;-87
2020/12/22 13:35:39;;;;;;;1.60;0.90;;;17.20;99.90;;;;;;6138157;23;20181;-84
2020/12/22 13:38:05;;;;;;;2.43;1.00;;;17.10;99.90;;;;;;6130847;23;20147;-85
2020/12/22 13:40:32;;;;;;;3.70;1.17;;;17.10;99.90;;;;;;6135222;23;20175;-86
2020/12/22 13:42:59;;;;;;;2.83;1.53;;;17.10;99.90;;;;;;6131265;23;20567;-86
2020/12/22 13:45:25;;;;;;;2.37;1.43;;;17.10;99.90;;;;;;6134043;23;20532;-86
2020/12/22 13:47:51;;;;;;;2.07;1.40;;;17.10;99.90;;;;;;6141784;23;20539;-84
2020/12/22 13:50:16;;;;;;;2.33;1.90;;;17.00;99.90;;;;;;6113924;23;20564;-84
2020/12/22 13:52:44;;;;;;;3.17;1.50;;;17.10;99.90;;;;;;6142735;23;20621;-84
2020/12/22 13:55:12;;;;;;;2.70;1.80;;;17.00;99.90;;;;;;6144609;23;20155;-85
2020/12/22 13:57:38;;;;;;;4.63;2.90;;;17.00;99.90;;;;;;6139309;23;20842;-85
2020/12/22 14:00:05;;;;;;;5.60;2.23;;;17.00;99.90;;;;;;6112082;23;20527;-84
2020/12/22 14:02:32;;;;;;;4.73;3.20;;;17.00;99.90;;;;;;6137986;23;20567;-85
2020/12/22 14:04:58;;;;;;;5.20;3.90;;;17.00;99.90;;;;;;6098357;23;20606;-85
2020/12/22 14:07:24;;;;;;;3.63;3.10;;;17.00;99.90;;;;;;6075411;23;20873;-86
2020/12/22 14:09:50;;;;;;;4.80;3.00;;;17.00;99.90;;;;;;6127713;23;20535;-85
2020/12/22 14:12:16;;;;;;;4.40;2.40;;;17.00;99.90;;;;;;6126587;23;20613;-86
2020/12/22 14:14:41;;;;;;;2.53;1.97;;;17.00;99.90;;;;;;6129774;23;20618;-85
2020/12/22 14:17:07;;;;;;;3.03;1.90;;;16.90;99.90;;;;;;6115516;23;20138;-86
2020/12/22 14:19:33;;;;;;;2.17;1.77;;;16.90;99.90;;;;;;6124757;23;20507;-85
2020/12/22 14:21:59;;;;;;;2.23;1.60;;;16.90;99.90;;;;;;6145389;23;20585;-87
2020/12/22 14:24:25;;;;;;;4.20;1.63;;;16.90;99.90;;;;;;6144501;23;20638;-87
2020/12/22 14:26:51;;;;;;;1.90;1.20;;;16.90;99.90;;;;;;6143586;23;20602;-85
2020/12/22 14:29:17;;;;;;;1.73;1.03;;;16.90;99.90;;;;;;6128715;23;20154;-86
2020/12/22 14:31:45;;;;;;;2.37;0.97;;;16.90;99.90;;;;;;6139569;23;20178;-85
2020/12/22 14:34:10;;;;;;;2.20;0.80;;;16.80;99.90;;;;;;6127392;23;20635;-85
2020/12/22 14:36:36;;;;;;;2.77;1.10;;;16.90;99.90;;;;;;6099080;23;20634;-84
2020/12/22 14:39:03;;;;;;;2.50;1.10;;;16.80;99.90;;;;;;6132335;23;20981;-85
2020/12/22 14:41:31;;;;;;;3.20;1.70;;;16.80;99.90;;;;;;6131043;23;20245;-84
2020/12/22 14:43:56;;;;;;;4.63;2.27;;;16.90;99.90;;;;;;6128144;23;20539;-85
2020/12/22 14:46:22;;;;;;;3.20;1.50;;;16.90;99.90;;;;;;6130401;23;20522;-84
2020/12/22 14:48:48;;;;;;;3.13;2.63;;;16.80;99.90;;;;;;6133433;23;20155;-83
2020/12/22 14:51:14;;;;;;;3.20;1.30;;;16.80;99.90;;;;;;6105679;23;20171;-84
2020/12/22 14:53:40;;;;;;;3.40;1.40;;;16.80;99.90;;;;;;6125621;23;20534;-83
2020/12/22 14:56:08;;;;;;;2.30;1.70;;;16.80;99.90;;;;;;6077744;23;20166;-86